createdAt,value
2018-11-02T00:00:10.673Z,8.21
2018-11-02T00:05:14.079Z,8.11
2018-11-02T00:10:17.400Z,8.09
2018-11-02T00:15:20.750Z,8.04
2018-11-02T00:20:24.135Z,8.02
2018-11-02T00:25:27.442Z,8.04
2018-11-02T00:30:30.804Z,8.10
2018-11-02T00:35:34.416Z,8.16
2018-11-02T00:40:37.908Z,8.24
2018-11-02T00:45:41.238Z,8.30
2018-11-02T00:50:44.766Z,8.34
2018-11-02T00:55:48.272Z,8.38
2018-11-02T01:00:51.754Z,8.41
2018-11-02T01:05:55.309Z,8.42
2018-11-02T01:10:58.623Z,8.46
2018-11-02T01:16:02.039Z,8.48
2018-11-02T01:21:05.497Z,8.49
2018-11-02T01:26:08.787Z,8.56
2018-11-02T01:31:12.234Z,8.62
2018-11-02T01:36:15.554Z,8.59
2018-11-02T01:41:19.170Z,8.63
2018-11-02T01:46:22.511Z,8.61
2018-11-02T01:51:26.011Z,8.61
2018-11-02T01:56:29.662Z,8.59
2018-11-02T02:01:33.119Z,8.60
2018-11-02T02:06:36.569Z,8.61
2018-11-02T02:11:40.149Z,8.61
2018-11-02T02:16:43.506Z,8.61
2018-11-02T02:21:46.813Z,8.64
2018-11-02T02:26:50.272Z,8.64
2018-11-02T02:31:53.733Z,8.65
2018-11-02T02:36:57.270Z,8.67
2018-11-02T02:42:00.653Z,8.69
2018-11-02T02:47:03.966Z,8.67
2018-11-02T02:52:07.381Z,8.66
2018-11-02T02:57:10.870Z,8.61
2018-11-02T03:02:14.501Z,8.59
2018-11-02T03:07:17.884Z,8.52
2018-11-02T03:12:21.245Z,8.52
2018-11-02T03:17:24.586Z,8.51
2018-11-02T03:22:28.102Z,8.50
2018-11-02T03:27:31.550Z,8.53
2018-11-02T03:32:34.937Z,8.56
2018-11-02T03:37:38.351Z,8.58
2018-11-02T03:42:41.943Z,8.56
2018-11-02T03:47:45.344Z,8.53
2018-11-02T03:52:48.838Z,8.51
2018-11-02T03:57:52.134Z,8.49
2018-11-02T04:02:55.439Z,8.50
2018-11-02T04:07:58.770Z,8.46
2018-11-02T04:13:02.099Z,8.42
2018-11-02T04:18:05.981Z,8.39
2018-11-02T04:23:09.295Z,8.37
2018-11-02T04:28:12.877Z,8.33
2018-11-02T04:33:16.447Z,8.28
2018-11-02T04:38:19.812Z,8.28
2018-11-02T04:43:23.335Z,8.34
2018-11-02T04:48:26.854Z,8.42
2018-11-02T04:53:30.321Z,8.45
2018-11-02T04:58:33.716Z,8.48
2018-11-02T05:03:37.254Z,8.48
2018-11-02T05:08:40.790Z,8.45
2018-11-02T05:13:44.121Z,8.49
2018-11-02T05:18:47.551Z,8.50
2018-11-02T05:23:51.042Z,8.45
2018-11-02T05:28:54.614Z,8.41
2018-11-02T05:33:57.958Z,8.36
2018-11-02T05:39:01.255Z,8.33
2018-11-02T05:44:04.558Z,8.30
2018-11-02T05:49:08.184Z,8.29
2018-11-02T05:54:12.259Z,8.31
2018-11-02T05:59:15.744Z,8.36
2018-11-02T06:04:19.195Z,8.38
2018-11-02T06:09:22.801Z,8.40
2018-11-02T06:14:26.632Z,8.46
2018-11-02T06:19:30.199Z,8.48
2018-11-02T06:24:33.843Z,8.48
2018-11-02T06:29:37.415Z,8.49
2018-11-02T06:34:40.879Z,8.50
2018-11-02T06:39:44.364Z,8.55
2018-11-02T06:44:48.076Z,8.62
2018-11-02T06:49:51.674Z,8.68
2018-11-02T06:54:55.292Z,8.74
2018-11-02T06:59:58.920Z,8.84
2018-11-02T07:05:02.478Z,8.97
2018-11-02T07:10:06.586Z,8.99
2018-11-02T07:15:09.902Z,9.08
2018-11-02T07:20:13.291Z,9.18
2018-11-02T07:25:16.747Z,9.25
2018-11-02T07:30:19.998Z,9.31
2018-11-02T07:35:23.302Z,9.39
2018-11-02T07:40:26.719Z,9.63
2018-11-02T07:45:30.257Z,9.91
2018-11-02T07:50:33.565Z,10.14
2018-11-02T07:55:36.881Z,10.27
2018-11-02T08:00:40.182Z,10.29
2018-11-02T08:05:43.806Z,10.42
2018-11-02T08:10:47.154Z,10.69
2018-11-02T08:15:50.638Z,10.88
2018-11-02T08:20:53.977Z,10.99
2018-11-02T08:25:57.355Z,10.95
2018-11-02T08:31:00.650Z,10.97
2018-11-02T08:36:03.958Z,11.33
2018-11-02T08:41:07.434Z,11.71
2018-11-02T08:46:10.824Z,11.97
2018-11-02T08:51:14.286Z,12.19
2018-11-02T08:56:17.798Z,12.16
2018-11-02T09:01:21.111Z,12.06
2018-11-02T09:06:24.458Z,12.13
2018-11-02T09:11:27.965Z,12.24
2018-11-02T09:16:31.518Z,12.30
2018-11-02T09:21:34.872Z,12.40
2018-11-02T09:26:38.354Z,12.54
2018-11-02T09:31:41.745Z,12.63
2018-11-02T09:36:46.903Z,12.59
2018-11-02T09:41:50.445Z,12.65
2018-11-02T09:46:55.006Z,12.83
2018-11-02T09:51:58.518Z,13.03
2018-11-02T09:57:02.076Z,13.20
2018-11-02T10:02:05.776Z,13.32
2018-11-02T10:07:09.378Z,13.28
2018-11-02T10:12:12.860Z,13.46
2018-11-02T10:17:16.519Z,13.48
2018-11-02T10:22:20.196Z,13.49
2018-11-02T10:27:23.597Z,13.79
2018-11-02T10:32:27.199Z,14.62
2018-11-02T10:37:30.694Z,15.13
2018-11-02T10:42:34.190Z,15.05
2018-11-02T10:47:37.726Z,15.28
2018-11-02T10:52:43.003Z,15.43
2018-11-02T10:57:46.665Z,15.44
2018-11-02T11:02:50.335Z,15.90
2018-11-02T11:07:54.679Z,16.79
2018-11-02T11:12:58.435Z,17.45
2018-11-02T11:18:02.702Z,17.95
2018-11-02T11:23:06.330Z,18.09
2018-11-02T11:28:09.905Z,20.66
2018-11-02T11:33:13.378Z,25.54
2018-11-02T11:38:16.842Z,27.98
2018-11-02T11:43:20.226Z,30.63
2018-11-02T11:48:23.723Z,32.34
2018-11-02T11:53:27.060Z,29.81
2018-11-02T11:58:30.443Z,26.13
2018-11-02T12:03:33.783Z,24.93
2018-11-02T12:08:37.186Z,27.29
2018-11-02T12:13:40.890Z,28.80
2018-11-02T12:18:44.434Z,29.37
2018-11-02T12:23:47.933Z,31.35
2018-11-02T12:28:53.847Z,33.15
2018-11-02T12:33:57.387Z,33.60
2018-11-02T12:39:00.792Z,34.33
2018-11-02T12:44:04.469Z,34.26
2018-11-02T12:49:08.178Z,32.57
2018-11-02T12:54:11.362Z,33.51
2018-11-02T12:59:14.957Z,34.42
2018-11-02T13:04:18.621Z,34.74
2018-11-02T13:09:22.086Z,29.53
2018-11-02T13:14:25.670Z,24.72
2018-11-02T13:19:29.121Z,22.43
2018-11-02T13:24:32.470Z,19.73
2018-11-02T13:29:36.029Z,18.66
2018-11-02T13:34:39.457Z,18.41
2018-11-02T13:39:42.834Z,17.99
2018-11-02T13:44:46.419Z,18.00
2018-11-02T13:49:49.942Z,17.48
2018-11-02T13:54:53.447Z,16.93
2018-11-02T13:59:56.854Z,16.76
2018-11-02T14:05:00.483Z,16.68
2018-11-02T14:10:03.978Z,16.52
2018-11-02T14:15:08.626Z,16.38
2018-11-02T14:20:13.014Z,16.01
2018-11-02T14:25:17.297Z,15.94
2018-11-02T14:30:20.664Z,15.66
2018-11-02T14:35:24.041Z,15.46
2018-11-02T14:40:27.430Z,15.33
2018-11-02T14:45:30.797Z,15.09
2018-11-02T14:50:34.329Z,14.95
2018-11-02T14:55:37.775Z,14.78
2018-11-02T15:00:41.128Z,14.49
2018-11-02T15:05:44.921Z,14.30
2018-11-02T15:10:48.316Z,14.20
2018-11-02T15:15:52.059Z,14.01
2018-11-02T15:20:55.806Z,13.86
2018-11-02T15:25:59.423Z,13.86
2018-11-02T15:31:02.854Z,13.81
2018-11-02T15:36:06.558Z,13.66
2018-11-02T15:41:09.929Z,13.56
2018-11-02T15:46:13.376Z,13.53
2018-11-02T15:51:16.971Z,13.45
2018-11-02T15:56:20.597Z,13.36
2018-11-02T16:01:23.924Z,13.26
2018-11-02T16:06:27.362Z,13.18
2018-11-02T16:11:30.693Z,13.14
2018-11-02T16:16:34.123Z,13.07
2018-11-02T16:21:38.127Z,12.92
2018-11-02T16:26:41.616Z,12.82
2018-11-02T16:31:45.073Z,12.78
2018-11-02T16:36:48.591Z,12.79
2018-11-02T16:41:51.991Z,12.74
2018-11-02T16:46:55.325Z,12.72
2018-11-02T16:51:58.735Z,12.70
2018-11-02T16:57:02.293Z,12.67
2018-11-02T17:02:05.763Z,12.63
2018-11-02T17:07:09.176Z,12.54
2018-11-02T17:12:12.539Z,12.45
2018-11-02T17:17:15.979Z,12.35
2018-11-02T17:22:19.345Z,12.21
2018-11-02T17:27:22.699Z,12.13
2018-11-02T17:32:26.927Z,12.07
2018-11-02T17:37:30.314Z,11.99
2018-11-02T17:42:33.703Z,11.87
2018-11-02T17:47:38.099Z,11.79
2018-11-02T17:52:41.509Z,11.69
2018-11-02T17:57:44.936Z,11.65
2018-11-02T18:02:48.382Z,11.62
2018-11-02T18:07:51.795Z,11.57
2018-11-02T18:12:55.159Z,11.51
2018-11-02T18:17:58.549Z,11.47
2018-11-02T18:23:01.982Z,11.42
2018-11-02T18:28:05.560Z,11.40
2018-11-02T18:33:08.998Z,11.35
2018-11-02T18:38:12.387Z,11.33
2018-11-02T18:43:15.725Z,11.36
2018-11-02T18:48:20.595Z,11.32
2018-11-02T18:53:24.121Z,11.33
2018-11-02T18:58:27.949Z,11.39
2018-11-02T19:03:31.366Z,11.42
2018-11-02T19:08:34.969Z,11.45
2018-11-02T19:13:38.490Z,11.49
2018-11-02T19:18:42.636Z,11.52
2018-11-02T19:23:46.091Z,11.46
2018-11-02T19:28:49.493Z,11.43
2018-11-02T19:33:53.002Z,11.39
2018-11-02T19:38:56.427Z,11.36
2018-11-02T19:43:59.825Z,11.35
2018-11-02T19:49:03.300Z,11.29
2018-11-02T19:54:06.609Z,11.26
2018-11-02T19:59:09.988Z,11.19
2018-11-02T20:04:13.448Z,11.13
2018-11-02T20:09:16.899Z,11.11
2018-11-02T20:14:20.322Z,11.08
2018-11-02T20:19:23.771Z,11.05
2018-11-02T20:24:27.177Z,11.03
2018-11-02T20:29:30.556Z,10.98
2018-11-02T20:34:33.906Z,10.92
2018-11-02T20:39:37.328Z,10.85
2018-11-02T20:44:40.602Z,10.76
2018-11-02T20:49:44.077Z,10.65
2018-11-02T20:54:48.215Z,10.53
2018-11-02T20:59:52.689Z,10.41
2018-11-02T21:04:56.043Z,10.32
2018-11-02T21:09:59.383Z,10.27
2018-11-02T21:15:03.176Z,10.28
2018-11-02T21:20:07.938Z,10.29
2018-11-02T21:25:12.057Z,10.33
2018-11-02T21:30:17.176Z,10.34
2018-11-02T21:35:21.145Z,10.33
2018-11-02T21:40:25.379Z,10.30
2018-11-02T21:45:28.727Z,10.25
2018-11-02T21:50:32.128Z,10.19
2018-11-02T21:55:35.449Z,10.15
2018-11-02T22:00:38.892Z,10.05
2018-11-02T22:05:42.303Z,10.07
2018-11-02T22:10:45.624Z,10.13
2018-11-02T22:15:49.012Z,10.19
2018-11-02T22:20:52.313Z,10.23
2018-11-02T22:25:55.640Z,10.26
2018-11-02T22:30:58.960Z,10.26
2018-11-02T22:36:02.460Z,10.25
2018-11-02T22:41:06.391Z,10.29
2018-11-02T22:46:10.639Z,10.22
2018-11-02T22:51:14.243Z,10.18
2018-11-02T23:01:45.966Z,10.10
2018-11-02T23:06:49.490Z,10.17
2018-11-02T23:11:53.086Z,10.21
2018-11-02T23:16:56.702Z,10.29
2018-11-02T23:22:00.078Z,10.38
2018-11-02T23:27:04.098Z,10.39
2018-11-02T23:32:07.423Z,10.41
2018-11-02T23:37:10.785Z,10.40
2018-11-02T23:42:14.163Z,10.41
2018-11-02T23:47:17.478Z,10.43
2018-11-02T23:52:21.263Z,10.45
2018-11-02T23:57:24.614Z,10.43
